Time;durP1;ratioP1;P1;durP2;ratioP2;P2;SDS_P1;SDS_P2;PMS_P1;PMS_P2;Temp;Humidity;BMP_temperature;BMP_pressure;BME280_temperature;BME280_humidity;BME280_pressure;Samples;Min_cycle;Max_cycle;Signal;HPM_P1;HPM_P2
2020/12/28 00:01:26;;;;;;;2.53;1.30;;;7.70;99.90;;;;;;5114921;28;20087;-67
2020/12/28 00:03:52;;;;;;;1.93;1.07;;;7.70;99.90;;;;;;5115085;28;20020;-68
2020/12/28 00:06:17;;;;;;;1.00;0.50;;;7.70;99.90;;;;;;5113845;28;20067;-67
2020/12/28 00:08:43;;;;;;;1.03;0.93;;;7.60;99.90;;;;;;5114363;28;20106;-67
2020/12/28 00:11:08;;;;;;;1.73;1.30;;;7.60;99.90;;;;;;5113530;28;20432;-67
2020/12/28 00:13:34;;;;;;;0.40;0.30;;;7.70;99.90;;;;;;5114852;28;20035;-67
2020/12/28 00:15:59;;;;;;;0.50;0.43;;;7.60;99.90;;;;;;5114838;28;20043;-66
2020/12/28 00:18:25;;;;;;;1.53;1.30;;;7.60;99.90;;;;;;5114744;28;20114;-66
2020/12/28 00:20:51;;;;;;;0.30;0.30;;;7.60;99.90;;;;;;5114673;28;20024;-67
2020/12/28 00:23:16;;;;;;;0.63;0.40;;;7.60;99.90;;;;;;5115067;28;20392;-67
2020/12/28 00:25:42;;;;;;;0.87;0.40;;;7.60;99.90;;;;;;5115095;28;20019;-67
2020/12/28 00:28:07;;;;;;;0.70;0.57;;;7.60;99.90;;;;;;5115118;28;20047;-67
2020/12/28 00:30:33;;;;;;;0.40;0.37;;;7.60;99.90;;;;;;5115312;28;20019;-67
2020/12/28 00:32:59;;;;;;;2.13;0.47;;;7.60;99.90;;;;;;5115036;28;20349;-67
2020/12/28 00:35:24;;;;;;;0.40;0.40;;;7.50;99.90;;;;;;5114909;28;20028;-66
2020/12/28 00:37:50;;;;;;;0.20;0.20;;;7.50;99.90;;;;;;5114909;28;20038;-68
2020/12/28 00:40:15;;;;;;;1.03;0.30;;;7.50;99.90;;;;;;5114836;28;20031;-67
2020/12/28 00:42:41;;;;;;;0.80;0.40;;;7.40;99.90;;;;;;5113574;28;20038;-67
2020/12/28 00:45:10;;;;;;;0.93;0.30;;;7.40;99.90;;;;;;5114786;28;20028;-67
2020/12/28 00:47:36;;;;;;;0.63;0.30;;;7.30;99.90;;;;;;5113944;28;20019;-66
2020/12/28 00:50:04;;;;;;;0.75;0.40;;;7.30;99.90;;;;;;5112897;28;20030;-67
2020/12/28 00:52:30;;;;;;;0.50;0.30;;;7.20;99.90;;;;;;5113013;28;20115;-68
2020/12/28 00:54:55;;;;;;;0.67;0.20;;;7.20;99.90;;;;;;5113154;28;20059;-67
2020/12/28 00:57:21;;;;;;;0.37;0.30;;;7.10;99.90;;;;;;5114560;28;20464;-67
2020/12/28 00:59:46;;;;;;;0.43;0.40;;;7.10;99.90;;;;;;5114853;28;20027;-67
2020/12/28 01:02:12;;;;;;;1.03;0.40;;;7.10;99.90;;;;;;5114910;28;20058;-67
2020/12/28 01:04:40;;;;;;;0.30;0.30;;;7.00;99.90;;;;;;5113429;28;20038;-68
2020/12/28 01:07:05;;;;;;;0.63;0.30;;;7.00;99.90;;;;;;5114478;28;20752;-67
2020/12/28 01:09:31;;;;;;;1.37;0.50;;;7.00;99.90;;;;;;5113574;28;20114;-66
2020/12/28 01:11:57;;;;;;;1.65;0.50;;;6.90;99.90;;;;;;5122166;28;20030;-66
2020/12/28 01:14:23;;;;;;;0.63;0.40;;;6.90;99.90;;;;;;5116768;28;20052;-68
2020/12/28 01:16:49;;;;;;;1.65;0.40;;;6.90;99.90;;;;;;5117622;28;20027;-67
2020/12/28 01:19:14;;;;;;;0.60;0.50;;;6.90;99.90;;;;;;5117685;28;20115;-68
2020/12/28 01:21:40;;;;;;;0.70;0.43;;;6.80;99.90;;;;;;5113226;28;20173;-67
2020/12/28 01:24:06;;;;;;;0.60;0.40;;;6.80;99.90;;;;;;5113033;28;20031;-66
2020/12/28 01:26:31;;;;;;;2.40;0.40;;;6.90;99.90;;;;;;5112567;28;20019;-67
2020/12/28 01:28:57;;;;;;;0.40;0.30;;;6.80;99.90;;;;;;5113816;28;20063;-67
2020/12/28 01:31:23;;;;;;;0.20;0.20;;;6.80;99.90;;;;;;5112536;28;20026;-66
2020/12/28 01:33:48;;;;;;;1.93;0.40;;;6.80;99.90;;;;;;5113987;28;20257;-67
2020/12/28 01:36:14;;;;;;;0.40;0.37;;;6.80;99.90;;;;;;5112518;28;20493;-67
2020/12/28 01:38:40;;;;;;;0.30;0.30;;;6.80;99.90;;;;;;5112265;28;20028;-66
2020/12/28 01:41:06;;;;;;;0.40;0.30;;;6.80;99.90;;;;;;5113258;28;20051;-66
2020/12/28 01:43:32;;;;;;;0.60;0.30;;;6.80;99.90;;;;;;5131609;22;20097;-67
2020/12/28 01:46:01;;;;;;;1.38;0.50;;;6.80;99.90;;;;;;5111651;28;20080;-67
2020/12/28 01:48:30;;;;;;;0.20;0.20;;;6.80;99.90;;;;;;5113152;28;20478;-67
2020/12/28 01:50:57;;;;;;;1.02;0.40;;;6.80;99.90;;;;;;5111664;28;20081;-67
2020/12/28 01:53:24;;;;;;;2.28;0.40;;;6.80;99.90;;;;;;5112764;28;20063;-67
2020/12/28 01:55:54;;;;;;;2.58;0.30;;;6.70;99.90;;;;;;5112825;28;20027;-67
2020/12/28 01:58:21;;;;;;;0.65;0.30;;;6.70;99.90;;;;;;5113189;28;20390;-67
2020/12/28 02:00:46;;;;;;;1.10;0.30;;;6.70;99.90;;;;;;5113416;28;20077;-68
2020/12/28 02:03:14;;;;;;;0.30;0.30;;;6.70;99.90;;;;;;5111483;28;20028;-68
2020/12/28 02:05:39;;;;;;;1.05;0.52;;;6.60;99.90;;;;;;5112081;28;20059;-68
2020/12/28 02:08:05;;;;;;;1.97;0.97;;;6.60;99.90;;;;;;5112657;28;20059;-67
2020/12/28 02:10:31;;;;;;;2.80;0.50;;;6.60;99.90;;;;;;5112712;28;20258;-67
2020/12/28 02:12:57;;;;;;;2.90;1.70;;;6.60;99.90;;;;;;5111476;28;20455;-67
2020/12/28 02:15:22;;;;;;;5.37;2.67;;;6.60;99.90;;;;;;5111524;28;20031;-67
2020/12/28 02:17:48;;;;;;;3.63;2.20;;;6.60;99.90;;;;;;5112083;28;20030;-67
2020/12/28 02:20:14;;;;;;;4.20;2.15;;;6.50;99.90;;;;;;5111744;28;20043;-67
2020/12/28 02:22:40;;;;;;;3.17;2.03;;;6.60;99.90;;;;;;5112935;28;20042;-67
2020/12/28 02:25:06;;;;;;;0.30;0.30;;;6.50;99.90;;;;;;5111509;28;20027;-67
2020/12/28 02:27:32;;;;;;;1.35;0.90;;;6.60;99.90;;;;;;5112769;27;20080;-67
2020/12/28 02:29:58;;;;;;;1.58;0.93;;;6.50;99.90;;;;;;5112895;28;20019;-68
2020/12/28 02:32:23;;;;;;;1.90;0.90;;;6.50;99.90;;;;;;5113734;28;20055;-68
2020/12/28 02:34:49;;;;;;;2.80;2.33;;;6.50;99.90;;;;;;5116391;28;20730;-67
2020/12/28 02:37:14;;;;;;;2.70;1.03;;;6.50;99.90;;;;;;5114834;28;20026;-67
2020/12/28 02:39:40;;;;;;;0.53;0.53;;;6.40;99.90;;;;;;5116309;28;20028;-67
2020/12/28 02:42:06;;;;;;;0.47;0.47;;;6.40;99.90;;;;;;5115886;28;20035;-67
2020/12/28 02:44:31;;;;;;;1.30;0.40;;;6.40;99.90;;;;;;5116008;28;20066;-67
2020/12/28 02:46:57;;;;;;;0.83;0.50;;;6.40;99.90;;;;;;5114594;28;20054;-66
2020/12/28 02:49:22;;;;;;;1.53;0.40;;;6.40;99.90;;;;;;5115775;28;20149;-66
2020/12/28 02:51:48;;;;;;;0.90;0.50;;;6.40;99.90;;;;;;5115745;28;20403;-66
2020/12/28 02:54:14;;;;;;;0.70;0.50;;;6.40;99.90;;;;;;5115818;28;20031;-67
2020/12/28 02:56:39;;;;;;;1.10;1.00;;;6.40;99.90;;;;;;5115675;28;20024;-67
2020/12/28 02:59:05;;;;;;;11.07;0.60;;;6.40;99.90;;;;;;5115756;28;20395;-67
2020/12/28 03:01:30;;;;;;;2.00;0.40;;;6.40;99.90;;;;;;5114360;28;20108;-68
2020/12/28 03:03:56;;;;;;;0.40;0.40;;;6.40;99.90;;;;;;5115589;28;20023;-68
2020/12/28 03:06:21;;;;;;;0.80;0.50;;;6.50;99.90;;;;;;5115473;28;20084;-68
2020/12/28 03:08:47;;;;;;;1.70;0.57;;;6.40;99.90;;;;;;5115392;28;20464;-68
2020/12/28 03:11:13;;;;;;;0.97;0.50;;;6.40;99.90;;;;;;5116497;28;20027;-68
2020/12/28 03:13:38;;;;;;;1.13;0.50;;;6.40;99.90;;;;;;5115602;28;20369;-68
2020/12/28 03:16:04;;;;;;;1.47;0.50;;;6.30;99.90;;;;;;5115931;28;20464;-68
2020/12/28 03:18:30;;;;;;;0.80;0.40;;;6.40;99.90;;;;;;5114623;28;20056;-67
2020/12/28 03:20:56;;;;;;;0.50;0.40;;;6.40;99.90;;;;;;5115418;28;20150;-67
2020/12/28 03:23:21;;;;;;;1.10;0.53;;;6.40;99.90;;;;;;5114442;28;20168;-67
2020/12/28 03:25:47;;;;;;;1.27;0.50;;;6.40;99.90;;;;;;5116014;28;20103;-68
2020/12/28 03:28:13;;;;;;;1.50;0.50;;;6.30;99.90;;;;;;5116177;27;20042;-68
2020/12/28 03:30:38;;;;;;;2.43;0.50;;;6.40;99.90;;;;;;5115645;28;20031;-69
2020/12/28 03:33:04;;;;;;;1.20;0.33;;;6.40;99.90;;;;;;5115325;28;20369;-68
2020/12/28 03:35:30;;;;;;;0.63;0.50;;;6.30;99.90;;;;;;5115760;28;20055;-68
2020/12/28 03:37:55;;;;;;;0.70;0.43;;;6.30;99.90;;;;;;5117499;28;20050;-67
2020/12/28 03:40:21;;;;;;;1.47;0.70;;;6.30;99.90;;;;;;5116732;28;20039;-69
2020/12/28 03:42:46;;;;;;;0.87;0.70;;;6.30;99.90;;;;;;5122944;28;20032;-67
2020/12/28 03:45:12;;;;;;;1.80;0.60;;;6.30;99.90;;;;;;5117217;28;20027;-67
2020/12/28 03:47:38;;;;;;;1.20;0.70;;;6.30;99.90;;;;;;5117424;28;20086;-66
2020/12/28 03:50:03;;;;;;;1.83;0.40;;;6.30;99.90;;;;;;5116076;28;20103;-66
2020/12/28 03:52:29;;;;;;;1.53;0.50;;;6.20;99.90;;;;;;5115150;28;20019;-66
2020/12/28 03:54:55;;;;;;;1.70;0.60;;;6.20;99.90;;;;;;5115685;28;20059;-67
2020/12/28 03:57:20;;;;;;;0.60;0.43;;;6.20;99.90;;;;;;5115523;28;20026;-68
2020/12/28 03:59:46;;;;;;;0.53;0.43;;;6.20;99.90;;;;;;5116179;28;20038;-68
2020/12/28 04:02:11;;;;;;;0.50;0.50;;;6.20;99.90;;;;;;5114306;28;20027;-67
2020/12/28 04:04:37;;;;;;;1.10;0.67;;;6.10;99.90;;;;;;5114844;28;20147;-67
2020/12/28 04:07:03;;;;;;;0.50;0.40;;;6.10;99.90;;;;;;5114889;28;20031;-67
2020/12/28 04:09:28;;;;;;;0.53;0.50;;;6.10;99.90;;;;;;5114674;28;20039;-66
2020/12/28 04:11:54;;;;;;;1.97;0.57;;;6.10;99.90;;;;;;5112957;28;20650;-67
2020/12/28 04:14:19;;;;;;;1.17;0.50;;;6.10;99.90;;;;;;5112992;28;20030;-67
2020/12/28 04:16:45;;;;;;;1.43;0.50;;;6.10;99.90;;;;;;5114660;28;20019;-67
2020/12/28 04:19:11;;;;;;;0.90;0.40;;;6.10;99.90;;;;;;5114199;28;20023;-67
2020/12/28 04:21:36;;;;;;;1.17;0.50;;;6.10;99.90;;;;;;5114355;28;20476;-67
2020/12/28 04:24:02;;;;;;;1.20;0.70;;;6.10;99.90;;;;;;5114619;28;20494;-66
2020/12/28 04:26:28;;;;;;;1.67;0.50;;;6.10;99.90;;;;;;5112925;28;20046;-67
2020/12/28 04:28:53;;;;;;;2.23;0.43;;;6.10;99.90;;;;;;5114324;28;20102;-67
2020/12/28 04:31:19;;;;;;;1.20;0.60;;;6.10;99.90;;;;;;5114211;28;20328;-67
2020/12/28 04:33:45;;;;;;;1.07;0.50;;;6.10;99.90;;;;;;5114058;28;20026;-67
2020/12/28 04:36:10;;;;;;;0.60;0.50;;;6.10;99.90;;;;;;5113912;28;20027;-68
2020/12/28 04:38:36;;;;;;;1.07;0.30;;;6.10;99.90;;;;;;5113953;28;20032;-66
2020/12/28 04:41:02;;;;;;;2.13;0.60;;;6.00;99.90;;;;;;5112467;28;20059;-66
2020/12/28 04:43:28;;;;;;;1.20;0.50;;;6.10;99.90;;;;;;5113802;28;20031;-66
2020/12/28 04:46:02;;;;;;;0.53;0.40;;;6.10;99.90;;;;;;5113766;28;20031;-66
2020/12/28 04:48:31;;;;;;;0.57;0.40;;;6.10;99.90;;;;;;5113924;28;20360;-66
2020/12/28 04:50:59;;;;;;;0.30;0.30;;;6.10;99.90;;;;;;5113794;28;20107;-66
2020/12/28 04:53:26;;;;;;;0.60;0.40;;;6.10;99.90;;;;;;5113718;28;20027;-66
2020/12/28 04:55:52;;;;;;;0.80;0.50;;;6.10;99.90;;;;;;5111799;28;20019;-66
2020/12/28 04:58:18;;;;;;;1.00;0.50;;;6.20;99.90;;;;;;5113697;28;20168;-66
2020/12/28 05:00:44;;;;;;;0.50;0.50;;;6.20;99.90;;;;;;5113671;28;20028;-66
2020/12/28 05:03:10;;;;;;;;;;;6.20;99.90;;;;;;5112671;28;20400;-66
2020/12/28 05:05:46;;;;;;;0.50;0.40;;;6.30;99.90;;;;;;5112253;28;19904;-66
2020/12/28 05:08:12;;;;;;;1.00;0.60;;;6.30;99.90;;;;;;5112484;28;20576;-67
2020/12/28 05:10:38;;;;;;;2.53;0.50;;;6.30;99.90;;;;;;5112294;28;20117;-66
2020/12/28 05:13:11;;;;;;;0.98;0.40;;;6.30;99.90;;;;;;5112166;28;20042;-66
2020/12/28 05:15:55;;;;;;;0.70;0.38;;;6.30;99.90;;;;;;5113268;28;20023;-66
2020/12/28 05:18:21;;;;;;;1.27;0.50;;;6.40;99.90;;;;;;5113594;28;20024;-66
2020/12/28 05:20:48;;;;;;;1.52;0.40;;;6.30;99.90;;;;;;5113223;28;20043;-66
2020/12/28 05:23:15;;;;;;;1.60;0.50;;;6.30;99.90;;;;;;5113292;28;20028;-66
2020/12/28 05:25:46;;;;;;;0.73;0.40;;;6.40;99.90;;;;;;5113319;28;20023;-66
2020/12/28 05:28:21;;;;;;;0.80;0.50;;;6.30;99.90;;;;;;5113529;28;20050;-66
2020/12/28 05:30:48;;;;;;;0.70;0.50;;;6.30;99.90;;;;;;5113629;28;20020;-66
2020/12/28 05:33:14;;;;;;;2.10;0.50;;;6.30;99.90;;;;;;5113193;28;20463;-66
2020/12/28 05:35:40;;;;;;;3.20;0.70;;;6.30;99.90;;;;;;5113472;28;20019;-66
2020/12/28 05:38:07;;;;;;;1.83;0.60;;;6.30;99.90;;;;;;5113880;28;20077;-66
2020/12/28 05:40:34;;;;;;;0.77;0.50;;;6.30;99.90;;;;;;5113559;28;20051;-66
2020/12/28 05:43:00;;;;;;;;;;;6.30;99.90;;;;;;5113555;28;20451;-66
2020/12/28 05:45:25;;;;;;;4.53;0.70;;;6.30;99.90;;;;;;5111731;28;19939;-66
2020/12/28 05:47:56;;;;;;;1.00;0.60;;;6.30;99.90;;;;;;5113058;28;20102;-67
2020/12/28 05:50:23;;;;;;;2.15;0.60;;;6.30;99.90;;;;;;5112888;28;20157;-67
2020/12/28 05:52:55;;;;;;;1.90;0.65;;;6.30;99.90;;;;;;5113065;28;20468;-66
2020/12/28 05:55:23;;;;;;;1.63;0.60;;;6.40;99.90;;;;;;5111839;28;20043;-66
2020/12/28 05:57:49;;;;;;;1.65;0.40;;;6.50;99.90;;;;;;5113081;28;20012;-66
2020/12/28 06:00:15;;;;;;;1.20;0.60;;;6.40;99.90;;;;;;5112982;28;20032;-66
2020/12/28 06:02:41;;;;;;;0.93;0.52;;;6.30;99.90;;;;;;5111651;28;20028;-66
2020/12/28 06:05:12;;;;;;;1.25;0.52;;;6.40;99.90;;;;;;5113300;28;20028;-65
2020/12/28 06:07:37;;;;;;;0.80;0.43;;;6.40;99.90;;;;;;5114717;28;20480;-66
2020/12/28 06:10:05;;;;;;;0.70;0.65;;;6.30;99.90;;;;;;5115686;28;20049;-66
2020/12/28 06:12:31;;;;;;;3.45;1.02;;;6.20;99.90;;;;;;5116988;28;20073;-66
2020/12/28 06:14:58;;;;;;;1.05;0.50;;;6.20;99.90;;;;;;5115826;28;20024;-66
2020/12/28 06:17:36;;;;;;;3.75;2.38;;;6.20;99.90;;;;;;5115542;28;20020;-66
2020/12/28 06:20:06;;;;;;;1.23;0.60;;;6.30;99.90;;;;;;5116712;28;20020;-65
2020/12/28 06:22:33;;;;;;;1.85;0.70;;;6.20;99.90;;;;;;5116661;28;20031;-65
2020/12/28 06:25:05;;;;;;;1.23;0.60;;;6.20;99.90;;;;;;5116849;28;20102;-66
2020/12/28 06:27:34;;;;;;;2.30;0.50;;;6.30;99.90;;;;;;5116510;27;20035;-66
2020/12/28 06:30:12;;;;;;;3.65;0.70;;;6.40;99.90;;;;;;5116889;28;20036;-65
2020/12/28 06:32:39;;;;;;;2.50;0.80;;;6.40;99.90;;;;;;5116767;28;20027;-64
2020/12/28 06:35:06;;;;;;;;;;;6.30;99.90;;;;;;5116804;28;20019;-65
2020/12/28 06:37:43;;;;;;;1.00;0.60;;;6.30;99.90;;;;;;5116579;28;19990;-66
2020/12/28 06:40:10;;;;;;;;;;;6.30;99.90;;;;;;5116996;28;20518;-66
2020/12/28 06:42:35;;;;;;;2.90;1.70;;;6.30;99.90;;;;;;5115064;28;20303;-66
2020/12/28 06:45:16;;;;;;;2.27;0.80;;;6.30;99.90;;;;;;5114951;28;20027;-66
2020/12/28 06:47:43;;;;;;;1.67;0.75;;;6.30;99.90;;;;;;5114865;28;20051;-66
2020/12/28 06:50:09;;;;;;;2.67;0.90;;;6.30;99.90;;;;;;5116119;28;20027;-66
2020/12/28 06:52:35;;;;;;;2.72;1.30;;;6.30;99.90;;;;;;5115868;28;20046;-66
2020/12/28 06:55:11;;;;;;;0.87;0.53;;;6.40;99.90;;;;;;5116210;28;20024;-66
2020/12/28 06:57:37;;;;;;;1.65;0.93;;;6.30;99.90;;;;;;5114877;28;20027;-66
2020/12/28 07:00:05;;;;;;;1.27;0.90;;;6.30;99.90;;;;;;5114621;28;20028;-66
2020/12/28 07:02:32;;;;;;;2.63;1.10;;;6.30;99.90;;;;;;5116352;28;20035;-66
2020/12/28 07:05:01;;;;;;;2.33;1.48;;;6.40;99.90;;;;;;5116224;28;20034;-65
2020/12/28 07:07:27;;;;;;;2.35;1.50;;;6.40;99.90;;;;;;5114712;28;20027;-66
2020/12/28 07:09:52;;;;;;;2.33;1.00;;;6.30;99.90;;;;;;5114403;28;20395;-66
2020/12/28 07:12:21;;;;;;;3.53;1.40;;;6.30;99.90;;;;;;5115733;28;20568;-66
2020/12/28 07:14:46;;;;;;;2.38;1.00;;;6.30;99.90;;;;;;5115123;28;20048;-66
2020/12/28 07:17:12;;;;;;;3.63;1.90;;;6.30;99.90;;;;;;5114266;28;20024;-66
2020/12/28 07:19:38;;;;;;;2.50;1.80;;;6.40;99.90;;;;;;5113585;28;20019;-67
2020/12/28 07:22:03;;;;;;;2.80;0.80;;;6.60;99.90;;;;;;5116005;28;20024;-67
2020/12/28 07:24:30;;;;;;;2.10;1.10;;;6.50;99.90;;;;;;5114274;28;20544;-67
2020/12/28 07:26:56;;;;;;;2.92;1.70;;;6.40;99.90;;;;;;5114080;28;20039;-67
2020/12/28 07:29:22;;;;;;;5.67;2.47;;;6.30;99.90;;;;;;5112552;28;20028;-68
2020/12/28 07:31:48;;;;;;;1.85;1.15;;;6.20;99.90;;;;;;5111941;28;20024;-69
2020/12/28 07:34:18;;;;;;;2.30;1.00;;;6.20;99.90;;;;;;5113964;28;20378;-67
2020/12/28 07:36:46;;;;;;;2.30;1.20;;;6.20;99.90;;;;;;5114238;28;20019;-66
2020/12/28 07:39:13;;;;;;;1.92;1.27;;;6.10;99.90;;;;;;5113767;28;20043;-66
2020/12/28 07:41:39;;;;;;;2.22;1.10;;;6.00;99.90;;;;;;5112495;28;20036;-67
2020/12/28 07:44:05;;;;;;;2.63;1.20;;;5.90;99.90;;;;;;5113330;28;20039;-66
2020/12/28 07:46:30;;;;;;;1.88;1.00;;;5.90;99.90;;;;;;5115289;27;20490;-67
2020/12/28 07:49:00;;;;;;;2.73;1.30;;;5.90;99.90;;;;;;5114248;28;20395;-66
2020/12/28 07:51:31;;;;;;;4.50;1.58;;;5.90;99.90;;;;;;5115490;28;20023;-67
2020/12/28 07:54:08;;;;;;;3.35;1.20;;;5.90;99.90;;;;;;5115159;27;20045;-67
2020/12/28 07:56:44;;;;;;;2.00;1.30;;;5.90;99.90;;;;;;5113599;28;20019;-67
2020/12/28 07:59:45;;;;;;;2.35;1.63;;;5.80;99.90;;;;;;5115672;28;20420;-67
2020/12/28 08:02:29;;;;;;;4.90;1.95;;;5.80;99.90;;;;;;5115053;28;20030;-67
2020/12/28 08:04:57;;;;;;;2.67;1.42;;;5.80;99.90;;;;;;5115158;28;20031;-67
2020/12/28 08:07:23;;;;;;;2.08;1.40;;;5.80;99.90;;;;;;5114146;28;20027;-67
2020/12/28 08:09:55;;;;;;;3.03;1.33;;;5.80;99.90;;;;;;5113484;28;20361;-68
2020/12/28 08:12:21;;;;;;;2.70;1.10;;;5.80;99.90;;;;;;5114592;28;20048;-66
2020/12/28 08:14:54;;;;;;;2.00;1.38;;;5.80;99.90;;;;;;5114518;27;20024;-67
2020/12/28 08:17:26;;;;;;;3.00;1.00;;;5.90;99.90;;;;;;5114369;28;20019;-67
2020/12/28 08:20:06;;;;;;;2.50;1.50;;;5.90;99.90;;;;;;5115731;28;20026;-67
2020/12/28 08:22:31;;;;;;;2.08;1.35;;;5.90;99.90;;;;;;5114647;28;20028;-67
2020/12/28 08:25:10;;;;;;;3.37;2.20;;;5.90;99.90;;;;;;5113081;28;20024;-66
2020/12/28 08:27:37;;;;;;;10.52;2.40;;;5.90;99.90;;;;;;5114694;28;20027;-66
2020/12/28 08:30:08;;;;;;;5.43;2.05;;;5.90;99.90;;;;;;5112117;28;20034;-66
2020/12/28 08:32:35;;;;;;;7.38;2.17;;;5.90;99.90;;;;;;5114116;28;20069;-67
2020/12/28 08:35:04;;;;;;;20.02;3.03;;;5.90;99.90;;;;;;5114200;28;20020;-67
2020/12/28 08:37:30;;;;;;;2.78;1.55;;;5.90;99.90;;;;;;5114008;28;20081;-67
2020/12/28 08:39:56;;;;;;;;;;;5.90;99.90;;;;;;5114472;28;20042;-67
2020/12/28 08:42:32;;;;;;;3.70;1.42;;;5.90;99.90;;;;;;5114154;28;20244;-67
2020/12/28 08:44:58;;;;;;;3.17;1.30;;;5.90;99.90;;;;;;5113727;28;20019;-67
2020/12/28 08:47:26;;;;;;;5.80;1.77;;;5.90;99.90;;;;;;5114099;28;20521;-67
2020/12/28 08:49:52;;;;;;;1.70;1.25;;;6.00;99.90;;;;;;5114277;28;20412;-66
2020/12/28 08:52:20;;;;;;;3.22;1.50;;;6.00;99.90;;;;;;5113292;28;20015;-67
2020/12/28 08:54:56;;;;;;;2.05;1.02;;;6.20;99.90;;;;;;5113953;28;20476;-66
2020/12/28 08:57:26;;;;;;;3.40;1.00;;;6.20;99.90;;;;;;5114054;28;20016;-66
2020/12/28 08:59:53;;;;;;;1.40;1.10;;;6.20;99.90;;;;;;5113759;28;20163;-66
2020/12/28 09:02:21;;;;;;;2.95;1.35;;;6.20;99.90;;;;;;5113693;28;20030;-65
2020/12/28 09:04:47;;;;;;;1.58;1.02;;;6.10;99.90;;;;;;5112323;28;20035;-66
2020/12/28 09:07:14;;;;;;;4.05;1.63;;;6.10;99.90;;;;;;5112088;28;20020;-67
2020/12/28 09:09:41;;;;;;;1.63;1.10;;;6.30;99.90;;;;;;5113608;28;20382;-68
2020/12/28 09:12:08;;;;;;;2.33;1.27;;;6.40;99.90;;;;;;5112265;28;20056;-68
2020/12/28 09:14:33;;;;;;;;;;;6.40;99.90;;;;;;5114136;28;20102;-67
2020/12/28 09:16:59;;;;;;;1.88;1.00;;;6.40;99.90;;;;;;5113650;28;19939;-68
2020/12/28 09:19:24;;;;;;;1.07;0.70;;;6.30;99.90;;;;;;5112087;28;20038;-68
2020/12/28 09:21:50;;;;;;;1.23;0.90;;;6.30;99.90;;;;;;5112140;28;20073;-68
2020/12/28 09:24:16;;;;;;;1.63;1.03;;;6.30;99.90;;;;;;5113377;28;20024;-68
2020/12/28 09:26:41;;;;;;;3.83;0.93;;;6.30;99.90;;;;;;5113607;28;20440;-68
2020/12/28 09:29:07;;;;;;;33.07;3.47;;;6.30;99.90;;;;;;5112297;28;20055;-73
2020/12/28 09:31:32;;;;;;;13.57;1.90;;;6.40;99.90;;;;;;5112057;28;20024;-72
2020/12/28 09:34:02;;;;;;;16.30;2.77;;;6.50;99.90;;;;;;5112676;28;20460;-77
2020/12/28 09:36:27;;;;;;;45.88;7.95;;;6.50;99.90;;;;;;5113920;28;20031;-75
2020/12/28 09:38:54;;;;;;;12.07;2.53;;;6.60;99.90;;;;;;5112981;28;20020;-69
2020/12/28 09:41:19;;;;;;;;;;;6.70;99.90;;;;;;5115548;28;20023;-69
2020/12/28 09:43:45;;;;;;;11.07;1.70;;;6.80;99.90;;;;;;5117268;28;20040;-70
2020/12/28 09:46:12;;;;;;;11.23;1.73;;;6.80;99.90;;;;;;5118450;28;20028;-70
2020/12/28 09:48:38;;;;;;;42.25;5.05;;;6.80;99.90;;;;;;5115861;28;20080;-68
2020/12/28 09:51:05;;;;;;;9.60;1.80;;;6.80;99.90;;;;;;5117371;28;20147;-70
2020/12/28 09:53:30;;;;;;;4.78;1.20;;;6.90;99.90;;;;;;5117230;28;20024;-70
2020/12/28 09:55:56;;;;;;;7.27;1.80;;;7.00;99.90;;;;;;5121100;28;20429;-69
2020/12/28 09:58:22;;;;;;;7.37;1.50;;;7.00;99.90;;;;;;5119961;28;20472;-69
2020/12/28 10:00:47;;;;;;;19.87;2.83;;;7.00;99.90;;;;;;5117485;28;20099;-70
2020/12/28 10:03:13;;;;;;;6.63;1.60;;;7.00;99.90;;;;;;5117170;28;20307;-69
2020/12/28 10:05:39;;;;;;;6.10;1.53;;;7.00;99.90;;;;;;5116992;28;20027;-69
2020/12/28 10:08:05;;;;;;;1.63;1.10;;;7.10;99.90;;;;;;5117166;28;20289;-69
2020/12/28 10:10:30;;;;;;;5.70;1.70;;;7.10;99.90;;;;;;5116873;28;20089;-69
2020/12/28 10:12:56;;;;;;;4.63;1.85;;;7.20;99.90;;;;;;5115388;28;20019;-73
2020/12/28 10:15:22;;;;;;;3.37;1.63;;;7.20;99.90;;;;;;5115339;28;20491;-69
2020/12/28 10:18:21;;;;;;;3.47;1.60;;;7.30;99.90;;;;;;5116835;28;20023;-71
2020/12/28 10:20:48;;;;;;;2.00;1.27;;;7.30;99.90;;;;;;5117241;28;20027;-71
2020/12/28 10:23:13;;;;;;;2.25;1.35;;;7.40;99.90;;;;;;5115936;28;20107;-70
2020/12/28 10:25:39;;;;;;;1.87;1.20;;;7.50;99.90;;;;;;5115718;28;20078;-71
2020/12/28 10:28:05;;;;;;;5.78;1.40;;;7.50;99.90;;;;;;5115075;28;20028;-71
2020/12/28 10:30:31;;;;;;;1.60;1.00;;;7.60;99.90;;;;;;5116294;28;20158;-71
2020/12/28 10:32:57;;;;;;;2.83;1.27;;;7.60;99.90;;;;;;5114956;28;20066;-71
2020/12/28 10:35:23;;;;;;;4.75;2.08;;;7.70;99.90;;;;;;5116504;28;20023;-71
2020/12/28 10:37:49;;;;;;;2.92;1.10;;;7.80;99.90;;;;;;5117125;28;20066;-71
2020/12/28 10:40:15;;;;;;;5.35;2.85;;;7.80;99.90;;;;;;5117429;27;20039;-70
2020/12/28 10:42:41;;;;;;;3.20;1.85;;;7.90;99.90;;;;;;5115871;28;20130;-71
2020/12/28 10:45:07;;;;;;;2.53;1.40;;;8.00;99.90;;;;;;5116687;28;20106;-72
2020/12/28 10:47:33;;;;;;;1.92;1.20;;;8.00;99.90;;;;;;5115073;28;20027;-72
2020/12/28 10:49:58;;;;;;;2.50;1.50;;;8.00;99.90;;;;;;5115153;28;20035;-72
2020/12/28 10:52:24;;;;;;;3.70;1.27;;;8.00;99.90;;;;;;5114143;28;20100;-72
2020/12/28 10:54:50;;;;;;;9.73;1.80;;;7.90;99.90;;;;;;5114981;28;20031;-71
2020/12/28 10:57:15;;;;;;;3.73;1.50;;;7.90;99.90;;;;;;5115974;28;20580;-70
2020/12/28 10:59:41;;;;;;;3.80;1.80;;;7.90;99.90;;;;;;5114795;28;20122;-72
2020/12/28 11:02:07;;;;;;;3.47;1.83;;;7.90;99.90;;;;;;5116221;28;20027;-73
2020/12/28 11:04:32;;;;;;;6.18;1.83;;;7.90;99.90;;;;;;5116713;28;20418;-69
2020/12/28 11:06:58;;;;;;;4.23;1.63;;;7.90;99.90;;;;;;5116213;28;20041;-71
2020/12/28 11:09:24;;;;;;;3.73;1.83;;;7.90;99.90;;;;;;5114731;28;20416;-69
2020/12/28 11:11:50;;;;;;;1.90;1.33;;;7.90;99.90;;;;;;5114762;28;20468;-68
2020/12/28 11:14:16;;;;;;;2.40;1.33;;;7.90;99.90;;;;;;5116103;28;20266;-70
2020/12/28 11:16:43;;;;;;;2.20;1.50;;;8.00;99.90;;;;;;5116199;28;20015;-66
2020/12/28 11:19:09;;;;;;;3.47;1.70;;;8.00;99.90;;;;;;5116389;28;20072;-66
2020/12/28 11:21:35;;;;;;;2.63;1.70;;;8.10;99.90;;;;;;5115138;28;20118;-66
2020/12/28 11:24:03;;;;;;;3.88;1.60;;;8.10;99.90;;;;;;5118054;28;20289;-65
2020/12/28 11:26:32;;;;;;;3.65;1.67;;;8.10;99.90;;;;;;5118866;28;20120;-65
2020/12/28 11:29:07;;;;;;;3.58;1.80;;;8.20;99.90;;;;;;5118863;28;20015;-71
2020/12/28 11:31:35;;;;;;;2.33;1.60;;;8.20;99.90;;;;;;5117879;28;20134;-69
2020/12/28 11:34:03;;;;;;;2.00;1.45;;;8.20;99.90;;;;;;5118438;28;20096;-75
2020/12/28 11:36:32;;;;;;;2.13;1.20;;;8.10;99.90;;;;;;5116414;28;20035;-69
2020/12/28 11:38:59;;;;;;;2.10;1.30;;;8.10;99.90;;;;;;5117339;28;20028;-70
2020/12/28 11:41:27;;;;;;;2.97;1.40;;;8.10;99.90;;;;;;5118211;28;20395;-71
2020/12/28 11:43:55;;;;;;;1.80;1.10;;;8.00;99.90;;;;;;5118997;28;20077;-71
2020/12/28 11:46:36;;;;;;;3.08;1.40;;;8.00;99.90;;;;;;5118600;28;20055;-71
2020/12/28 11:49:01;;;;;;;3.00;1.20;;;7.90;99.90;;;;;;5117023;28;20111;-70
2020/12/28 11:51:27;;;;;;;2.23;1.37;;;7.80;99.90;;;;;;5116410;28;20062;-67
2020/12/28 11:53:53;;;;;;;2.27;1.40;;;7.80;99.90;;;;;;5115497;28;20024;-68
2020/12/28 11:56:19;;;;;;;3.13;1.73;;;7.80;99.90;;;;;;5115861;28;20028;-69
2020/12/28 11:58:45;;;;;;;3.63;1.42;;;7.70;99.90;;;;;;5113920;28;20035;-67
2020/12/28 12:01:13;;;;;;;2.67;1.00;;;7.60;99.90;;;;;;5115394;28;20104;-68
2020/12/28 12:03:39;;;;;;;2.55;1.25;;;7.50;99.90;;;;;;5114879;28;20024;-67
2020/12/28 12:06:05;;;;;;;1.27;0.98;;;7.20;99.90;;;;;;5115076;28;20059;-66
2020/12/28 12:08:31;;;;;;;3.87;1.10;;;6.90;99.90;;;;;;5113446;28;20340;-66
2020/12/28 12:10:57;;;;;;;2.47;1.00;;;6.70;99.90;;;;;;5114912;28;20031;-66
2020/12/28 12:13:23;;;;;;;2.23;0.80;;;6.40;99.90;;;;;;5113504;28;20438;-67
2020/12/28 12:15:50;;;;;;;1.05;0.60;;;6.20;99.90;;;;;;5113441;28;20020;-64
2020/12/28 12:18:16;;;;;;;2.10;0.90;;;5.80;99.90;;;;;;5114624;28;20480;-66
2020/12/28 12:20:42;;;;;;;2.70;0.70;;;5.60;99.90;;;;;;5114519;28;20046;-67
2020/12/28 12:23:08;;;;;;;2.40;0.57;;;5.40;99.90;;;;;;5112877;28;20368;-67
2020/12/28 12:25:34;;;;;;;1.00;0.50;;;5.30;99.90;;;;;;5114034;28;20491;-67
2020/12/28 12:28:00;;;;;;;;;;;5.20;99.90;;;;;;5114497;28;20616;-66
2020/12/28 12:30:27;;;;;;;1.00;0.65;;;5.10;99.90;;;;;;5114301;28;19907;-66
2020/12/28 12:32:53;;;;;;;3.13;1.50;;;5.10;99.90;;;;;;5114227;28;20042;-66
2020/12/28 12:35:19;;;;;;;1.63;0.90;;;5.10;99.90;;;;;;5114062;28;20476;-69
2020/12/28 12:37:44;;;;;;;1.17;0.83;;;5.20;99.90;;;;;;5114322;28;20047;-65
2020/12/28 12:40:10;;;;;;;1.40;0.77;;;5.20;99.90;;;;;;5115220;28;20425;-65
2020/12/28 12:42:36;;;;;;;1.90;1.17;;;5.20;99.90;;;;;;5113971;28;20480;-66
2020/12/28 12:45:02;;;;;;;6.07;1.10;;;5.30;99.90;;;;;;5114474;28;20023;-65
2020/12/28 12:47:28;;;;;;;1.13;0.80;;;5.30;99.90;;;;;;5114360;28;20023;-65
2020/12/28 12:49:53;;;;;;;2.73;0.90;;;5.30;99.90;;;;;;5114033;28;20085;-65
2020/12/28 12:52:20;;;;;;;1.93;0.77;;;5.30;99.90;;;;;;5114337;28;20040;-68
2020/12/28 12:54:46;;;;;;;3.63;1.10;;;5.30;99.90;;;;;;5114826;28;20534;-63
2020/12/28 12:57:12;;;;;;;2.70;0.98;;;5.40;99.90;;;;;;5114609;28;20027;-68